createdAt,value
2019-04-01T00:01:21.337Z,10.63
2019-04-01T00:03:53.858Z,10.63
2019-04-01T00:06:26.490Z,10.69
2019-04-01T00:08:58.294Z,10.72
2019-04-01T00:11:30.661Z,10.73
2019-04-01T00:14:04.694Z,10.73
2019-04-01T00:16:38.285Z,10.60
2019-04-01T00:19:11.893Z,10.58
2019-04-01T00:21:44.730Z,10.58
2019-04-01T00:24:17.312Z,10.57
2019-04-01T00:26:49.425Z,10.63
2019-04-01T00:29:21.761Z,10.44
2019-04-01T00:31:54.383Z,10.44
2019-04-01T00:34:26.749Z,10.68
2019-04-01T00:36:59.313Z,10.68
2019-04-01T00:39:31.664Z,10.73
2019-04-01T00:42:08.898Z,10.73
2019-04-01T00:44:41.302Z,10.72
2019-04-01T00:47:13.705Z,10.51
2019-04-01T00:49:46.306Z,10.51
2019-04-01T00:52:19.862Z,10.39
2019-04-01T00:54:52.405Z,10.39
2019-04-01T00:57:24.802Z,10.19
2019-04-01T00:59:57.366Z,10.19
2019-04-01T01:02:29.065Z,10.06
2019-04-01T01:05:01.479Z,10.02
2019-04-01T01:07:34.290Z,9.86
2019-04-01T01:10:10.398Z,9.74
2019-04-01T01:12:42.801Z,9.74
2019-04-01T01:15:16.576Z,9.73
2019-04-01T01:17:49.045Z,9.66
2019-04-01T01:20:21.406Z,9.64
2019-04-01T01:22:53.842Z,9.63
2019-04-01T01:25:26.320Z,9.52
2019-04-01T01:28:01.403Z,9.39
2019-04-01T01:30:34.689Z,9.39
2019-04-01T01:33:07.298Z,9.40
2019-04-01T01:35:39.779Z,9.18
2019-04-01T01:38:12.475Z,9.18
2019-04-01T01:40:44.319Z,9.35
2019-04-01T01:43:16.698Z,9.34
2019-04-01T01:45:49.315Z,9.20
2019-04-01T01:48:21.745Z,9.02
2019-04-01T01:50:54.303Z,9.02
2019-04-01T01:53:26.773Z,9.00
2019-04-01T01:55:59.297Z,9.00
2019-04-01T01:58:31.629Z,9.07
2019-04-01T02:01:06.877Z,9.07
2019-04-01T02:03:39.364Z,9.12
2019-04-01T02:06:14.542Z,9.04
2019-04-01T02:08:47.297Z,8.99
2019-04-01T02:11:19.736Z,8.98
2019-04-01T02:13:52.290Z,8.98
2019-04-01T02:16:24.642Z,8.94
2019-04-01T02:18:57.179Z,8.94
2019-04-01T02:21:29.611Z,8.79
2019-04-01T02:24:02.308Z,8.66
2019-04-01T02:26:34.731Z,8.62
2019-04-01T02:29:09.749Z,8.62
2019-04-01T02:31:42.309Z,8.57
2019-04-01T02:34:14.600Z,8.41
2019-04-01T02:36:47.339Z,8.41
2019-04-01T02:39:19.725Z,8.34
2019-04-01T02:41:52.292Z,8.34
2019-04-01T02:44:24.645Z,8.30
2019-04-01T02:46:58.287Z,8.30
2019-04-01T02:49:30.645Z,8.20
2019-04-01T02:52:03.033Z,8.20
2019-04-01T02:54:35.571Z,8.10
2019-04-01T02:57:07.854Z,8.15
2019-04-01T02:59:40.361Z,8.08
2019-04-01T03:02:13.101Z,8.07
2019-04-01T03:04:45.514Z,8.08
2019-04-01T03:07:18.073Z,8.06
2019-04-01T03:09:50.517Z,7.97
2019-04-01T03:12:23.034Z,8.04
2019-04-01T03:14:55.458Z,7.91
2019-04-01T03:17:27.129Z,7.99
2019-04-01T03:19:59.512Z,8.02
2019-04-01T03:22:31.229Z,7.87
2019-04-01T03:25:03.635Z,7.85
2019-04-01T03:27:36.306Z,7.85
2019-04-01T03:30:09.291Z,7.63
2019-04-01T03:32:45.170Z,7.45
2019-04-01T03:35:16.550Z,7.46
2019-04-01T03:37:48.970Z,7.46
2019-04-01T03:40:21.368Z,7.46
2019-04-01T03:42:53.744Z,7.42
2019-04-01T03:45:26.285Z,7.42
2019-04-01T03:47:58.624Z,7.25
2019-04-01T03:50:31.297Z,7.25
2019-04-01T03:53:04.299Z,7.28
2019-04-01T03:55:37.006Z,7.28
2019-04-01T03:58:09.300Z,7.38
2019-04-01T04:00:41.705Z,7.20
2019-04-01T04:03:14.287Z,7.20
2019-04-01T04:05:46.665Z,7.20
2019-04-01T04:08:19.286Z,7.20
2019-04-01T04:10:51.674Z,7.25
2019-04-01T04:13:24.046Z,7.25
2019-04-01T04:15:56.323Z,7.45
2019-04-01T04:18:28.264Z,7.21
2019-04-01T04:21:00.527Z,7.13
2019-04-01T04:23:33.286Z,7.10
2019-04-01T04:26:05.819Z,7.28
2019-04-01T04:28:38.762Z,7.28
2019-04-01T04:31:12.337Z,7.16
2019-04-01T04:33:44.834Z,7.25
2019-04-01T04:36:17.434Z,7.25
2019-04-01T04:38:49.984Z,7.41
2019-04-01T04:43:32.369Z,7.34
2019-04-01T04:46:05.035Z,7.40
2019-04-01T04:48:37.438Z,7.40
2019-04-01T04:51:09.819Z,7.33
2019-04-01T04:56:25.607Z,7.11
2019-04-01T04:58:59.334Z,7.14
2019-04-01T05:01:31.706Z,6.99
2019-04-01T05:04:04.277Z,6.99
2019-04-01T05:06:36.550Z,6.78
2019-04-01T05:09:09.287Z,6.78
2019-04-01T05:11:41.665Z,6.79
2019-04-01T05:14:14.278Z,6.79
2019-04-01T05:16:46.998Z,6.60
2019-04-01T05:19:19.397Z,6.60
2019-04-01T05:21:53.576Z,6.77
2019-04-01T05:24:28.308Z,6.77
2019-04-01T05:27:02.807Z,6.85
2019-04-01T05:29:36.879Z,6.84
2019-04-01T05:32:13.294Z,6.80
2019-04-01T05:34:47.357Z,6.66
2019-04-01T05:37:19.262Z,6.66
2019-04-01T05:39:52.435Z,6.86
2019-04-01T05:42:26.659Z,6.81
2019-04-01T05:45:00.701Z,6.83
2019-04-01T05:47:34.790Z,6.87
2019-04-01T05:50:09.259Z,6.92
2019-04-01T05:52:47.053Z,6.98
2019-04-01T05:55:19.651Z,6.98
2019-04-01T05:57:52.273Z,7.11
2019-04-01T06:00:26.604Z,7.21
2019-04-01T06:02:59.483Z,7.21
2019-04-01T06:05:32.305Z,7.19
2019-04-01T06:08:05.052Z,7.24
2019-04-01T06:10:37.738Z,7.22
2019-04-01T06:13:11.067Z,7.25
2019-04-01T06:15:43.804Z,7.31
2019-04-01T06:18:16.385Z,7.33
2019-04-01T06:20:48.600Z,7.40
2019-04-01T06:23:21.291Z,7.49
2019-04-01T06:25:54.309Z,7.55
2019-04-01T06:28:27.303Z,7.62
2019-04-01T06:31:00.435Z,7.62
2019-04-01T06:33:32.777Z,7.81
2019-04-01T06:36:05.291Z,7.81
2019-04-01T06:38:37.702Z,7.92
2019-04-01T06:41:10.285Z,7.92
2019-04-01T06:43:42.645Z,8.08
2019-04-01T06:46:15.282Z,8.08
2019-04-01T06:48:47.965Z,8.36
2019-04-01T06:51:20.718Z,8.36
2019-04-01T06:53:55.890Z,8.39
2019-04-01T06:56:38.646Z,8.50
2019-04-01T06:59:12.018Z,8.59
2019-04-01T07:01:44.802Z,8.82
2019-04-01T07:04:17.383Z,8.82
2019-04-01T07:06:49.827Z,9.00
2019-04-01T07:09:22.646Z,9.00
2019-04-01T07:11:56.661Z,9.13
2019-04-01T07:14:29.288Z,9.27
2019-04-01T07:17:01.901Z,9.38
2019-04-01T07:19:37.523Z,9.38
2019-04-01T07:22:10.129Z,9.53
2019-04-01T07:24:42.765Z,9.68
2019-04-01T07:27:15.282Z,9.73
2019-04-01T07:29:47.902Z,9.76
2019-04-01T07:32:20.953Z,9.76
2019-04-01T07:34:53.301Z,10.01
2019-04-01T07:37:25.860Z,10.10
2019-04-01T07:39:58.370Z,10.10
2019-04-01T07:42:31.316Z,10.40
2019-04-01T07:45:04.494Z,10.61
2019-04-01T07:47:37.547Z,10.61
2019-04-01T07:50:12.422Z,10.66
2019-04-01T07:52:45.709Z,10.78
2019-04-01T07:55:18.384Z,10.86
2019-04-01T07:57:51.009Z,10.96
2019-04-01T08:00:27.050Z,11.21
2019-04-01T08:02:59.727Z,11.21
2019-04-01T08:05:32.473Z,11.32
2019-04-01T08:08:05.339Z,11.33
2019-04-01T08:10:38.374Z,11.49
2019-04-01T08:13:14.729Z,11.70
2019-04-01T08:15:47.429Z,11.74
2019-04-01T08:18:19.244Z,11.94
2019-04-01T08:20:51.629Z,12.07
2019-04-01T08:23:24.294Z,12.27
2019-04-01T08:25:56.842Z,12.48
2019-04-01T08:28:29.753Z,12.48
2019-04-01T08:31:04.291Z,12.52
2019-04-01T08:33:36.829Z,12.93
2019-04-01T08:36:09.406Z,12.93
2019-04-01T08:38:42.300Z,13.12
2019-04-01T08:41:17.293Z,12.97
2019-04-01T08:43:51.234Z,13.26
2019-04-01T08:46:23.791Z,13.50
2019-04-01T08:48:56.718Z,13.64
2019-04-01T08:51:29.321Z,13.51
2019-04-01T08:54:02.997Z,14.04
2019-04-01T08:56:43.805Z,14.04
2019-04-01T08:59:16.468Z,14.28
2019-04-01T09:01:49.467Z,14.23
2019-04-01T09:04:21.252Z,14.21
2019-04-01T09:06:53.890Z,14.46
2019-04-01T09:09:27.971Z,14.58
2019-04-01T09:12:01.429Z,14.56
2019-04-01T09:14:33.660Z,14.61
2019-04-01T09:17:06.632Z,14.59
2019-04-01T09:19:46.689Z,14.77
2019-04-01T09:22:19.326Z,15.00
2019-04-01T09:24:51.866Z,14.99
2019-04-01T09:27:24.426Z,14.99
2019-04-01T09:29:57.325Z,14.46
2019-04-01T09:32:29.912Z,14.76
2019-04-01T09:35:04.562Z,14.76
2019-04-01T09:37:37.086Z,14.62
2019-04-01T09:40:10.680Z,15.10
2019-04-01T09:42:43.294Z,15.44
2019-04-01T09:45:16.347Z,15.84
2019-04-01T09:47:48.246Z,15.84
2019-04-01T09:50:21.304Z,16.32
2019-04-01T09:52:56.373Z,15.93
2019-04-01T09:55:31.394Z,16.22
2019-04-01T09:58:03.901Z,16.36
2019-04-01T10:00:36.823Z,16.36
2019-04-01T10:03:10.238Z,16.24
2019-04-01T10:05:43.344Z,16.62
2019-04-01T10:08:15.794Z,16.80
2019-04-01T10:10:48.648Z,16.80
2019-04-01T10:13:21.358Z,16.86
2019-04-01T10:15:56.829Z,17.28
2019-04-01T10:18:30.305Z,17.28
2019-04-01T10:21:02.947Z,17.36
2019-04-01T10:23:35.388Z,17.36
2019-04-01T10:26:08.061Z,17.48
2019-04-01T10:28:44.000Z,17.48
2019-04-01T10:31:16.642Z,17.45
2019-04-01T10:33:49.354Z,17.45
2019-04-01T10:36:21.265Z,17.30
2019-04-01T10:38:53.821Z,17.81
2019-04-01T10:41:26.464Z,17.99
2019-04-01T10:43:59.047Z,18.08
2019-04-01T10:46:34.328Z,18.12
2019-04-01T10:49:06.799Z,18.17
2019-04-01T10:51:39.344Z,18.17
2019-04-01T10:54:12.066Z,18.41
2019-04-01T10:56:44.582Z,18.77
2019-04-01T10:59:17.178Z,18.51
2019-04-01T11:01:50.044Z,19.15
2019-04-01T11:04:22.582Z,19.15
2019-04-01T11:06:55.312Z,19.23
2019-04-01T11:09:38.273Z,19.30
2019-04-01T11:12:02.349Z,19.30
2019-04-01T11:14:34.239Z,19.50
2019-04-01T11:17:06.836Z,19.54
2019-04-01T11:19:39.875Z,19.82
2019-04-01T11:22:12.569Z,19.80
2019-04-01T11:24:45.020Z,19.97
2019-04-01T11:27:19.426Z,19.73
2019-04-01T11:29:51.078Z,19.80
2019-04-01T11:32:23.435Z,20.02
2019-04-01T11:34:56.191Z,20.18
2019-04-01T11:37:28.664Z,20.46
2019-04-01T11:40:03.382Z,20.46
2019-04-01T11:42:35.568Z,20.66
2019-04-01T11:45:11.780Z,20.76
2019-04-01T11:47:44.442Z,21.18
2019-04-01T11:50:16.383Z,20.91
2019-04-01T11:52:48.763Z,21.47
2019-04-01T11:55:21.505Z,21.47
2019-04-01T11:57:54.021Z,21.88
2019-04-01T12:00:28.069Z,22.13
2019-04-01T12:03:00.708Z,22.28
2019-04-01T12:05:33.309Z,22.66
2019-04-01T12:08:05.783Z,23.14
2019-04-01T12:10:39.298Z,23.14
2019-04-01T12:13:11.812Z,24.42
2019-04-01T12:15:44.501Z,24.42
2019-04-01T12:18:17.282Z,24.66
2019-04-01T12:20:50.909Z,25.43
2019-04-01T12:23:23.326Z,25.43
2019-04-01T12:25:55.775Z,25.57
2019-04-01T12:28:36.417Z,25.57
2019-04-01T12:31:07.577Z,24.84
2019-04-01T12:33:42.311Z,25.99
2019-04-01T12:36:14.914Z,25.32
2019-04-01T12:38:49.281Z,25.32
2019-04-01T12:41:21.899Z,26.08
2019-04-01T12:43:54.568Z,26.02
2019-04-01T12:46:27.416Z,26.94
2019-04-01T12:48:59.252Z,25.22
2019-04-01T12:51:31.608Z,26.00
2019-04-01T12:54:08.311Z,27.36
2019-04-01T12:56:42.441Z,28.84
2019-04-01T12:59:16.703Z,28.84
2019-04-01T13:01:49.619Z,29.18
2019-04-01T13:04:24.500Z,29.55
2019-04-01T13:06:58.325Z,28.69
2019-04-01T13:09:32.594Z,31.40
2019-04-01T13:12:14.133Z,31.40
2019-04-01T13:14:55.426Z,31.97
2019-04-01T14:01:44.587Z,28.03
2019-04-01T15:40:00.378Z,22.12
2019-04-01T15:42:32.301Z,21.78
2019-04-01T15:45:07.690Z,21.65
2019-04-01T15:47:40.333Z,21.65
2019-04-01T15:50:27.351Z,21.59
2019-04-01T15:52:46.676Z,21.80
2019-04-01T15:55:19.467Z,21.51
2019-04-01T15:57:51.987Z,21.57
2019-04-01T16:00:24.774Z,21.40
2019-04-01T16:02:57.748Z,21.43
2019-04-01T16:05:30.627Z,21.13
2019-04-01T16:08:03.309Z,21.10
2019-04-01T16:10:36.057Z,22.25
2019-04-01T16:13:08.842Z,22.25
2019-04-01T16:15:41.419Z,23.47
2019-04-01T16:18:13.219Z,23.90
2019-04-01T16:20:47.494Z,23.01
2019-04-01T16:23:20.275Z,22.44
2019-04-01T16:25:52.689Z,22.70
2019-04-01T16:28:25.301Z,22.70
2019-04-01T16:30:58.339Z,22.09
2019-04-01T16:33:30.296Z,22.09
2019-04-01T16:36:02.821Z,22.26
2019-04-01T16:38:35.407Z,20.77
2019-04-01T16:41:07.486Z,20.47
2019-04-01T16:43:39.246Z,20.99
2019-04-01T16:46:13.405Z,21.10
2019-04-01T16:48:46.595Z,20.86
2019-04-01T16:51:19.293Z,20.45
2019-04-01T16:53:51.815Z,19.96
2019-04-01T16:56:25.912Z,19.96
2019-04-01T16:58:59.941Z,19.54
2019-04-01T19:18:30.648Z,13.58
2019-04-01T19:21:09.811Z,13.46
2019-04-01T19:23:47.825Z,13.31
2019-04-01T19:26:26.675Z,13.10
2019-04-01T19:29:02.313Z,13.08
2019-04-01T19:31:38.671Z,13.00
2019-04-01T19:34:14.701Z,12.99
2019-04-01T19:36:46.771Z,12.89
2019-04-01T19:39:23.847Z,12.83
2019-04-01T19:41:57.730Z,12.75
2019-04-01T19:48:07.517Z,12.29
2019-04-01T19:50:41.292Z,12.29
2019-04-01T19:53:13.864Z,11.95
2019-04-01T19:55:46.424Z,11.95
2019-04-01T19:58:20.343Z,12.17
2019-04-01T20:00:52.231Z,11.97
2019-04-01T20:03:25.613Z,11.91
2019-04-01T20:05:58.757Z,11.77
2019-04-01T20:08:31.326Z,11.76
2019-04-01T20:11:04.316Z,11.62
2019-04-01T20:13:36.842Z,11.57
2019-04-01T20:16:10.260Z,11.57
2019-04-01T20:18:45.254Z,11.55
2019-04-01T20:21:18.013Z,11.30
2019-04-01T20:23:51.044Z,11.30
2019-04-01T20:26:23.535Z,11.30
2019-04-01T20:28:56.310Z,11.22
2019-04-01T20:31:28.799Z,11.10
2019-04-01T20:34:04.167Z,11.10
2019-04-01T20:36:35.573Z,11.06
2019-04-01T20:39:11.071Z,10.95
2019-04-01T20:41:43.467Z,10.93
2019-04-01T20:44:15.486Z,10.88
2019-04-01T20:46:47.240Z,10.83
2019-04-01T20:49:19.590Z,10.76
2019-04-01T20:51:54.035Z,10.70
2019-04-01T20:54:26.761Z,10.67
2019-04-01T20:56:59.398Z,10.63
2019-04-01T20:59:31.259Z,10.52
2019-04-01T21:02:04.251Z,10.50
2019-04-01T21:04:36.849Z,10.35
2019-04-01T21:07:09.997Z,10.35
2019-04-01T21:09:42.622Z,10.31
2019-04-01T21:12:16.298Z,10.26
2019-04-01T21:14:48.864Z,10.21
2019-04-01T21:17:21.327Z,10.21
2019-04-01T21:19:53.738Z,10.08
2019-04-01T21:22:26.162Z,10.08
2019-04-01T21:24:58.701Z,10.06
2019-04-01T21:27:31.312Z,10.08
2019-04-01T21:30:03.983Z,10.16
2019-04-01T21:32:36.749Z,10.16
2019-04-01T21:35:09.686Z,10.06
2019-04-01T21:37:42.312Z,9.95
2019-04-01T21:40:15.570Z,9.82
2019-04-01T21:42:47.985Z,9.82
2019-04-01T21:45:20.657Z,9.78
2019-04-01T21:47:53.291Z,9.70
2019-04-01T21:50:25.728Z,9.52
2019-04-01T21:52:59.668Z,9.52
2019-04-01T21:55:32.050Z,9.56
2019-04-01T21:58:04.482Z,9.49
2019-04-01T22:00:37.634Z,9.44
2019-04-01T22:03:10.648Z,9.37
2019-04-01T22:05:43.465Z,9.34
2019-04-01T22:08:16.301Z,9.29
2019-04-01T22:10:50.315Z,9.04
2019-04-01T22:13:27.225Z,9.04
2019-04-01T22:15:59.679Z,9.08
2019-04-01T22:18:33.022Z,9.08
2019-04-01T22:21:05.473Z,9.06
2019-04-01T22:23:37.059Z,9.04
2019-04-01T22:26:09.405Z,9.01
2019-04-01T22:28:44.405Z,9.01
2019-04-01T22:31:16.756Z,8.91
2019-04-01T22:33:49.302Z,8.91
2019-04-01T22:36:30.478Z,8.94
2019-04-01T22:38:55.372Z,8.91
2019-04-01T22:41:29.146Z,8.71
2019-04-01T22:44:02.051Z,8.90
2019-04-01T22:46:36.354Z,8.90
2019-04-01T22:49:08.867Z,8.84
2019-04-01T22:51:41.320Z,8.84
2019-04-01T22:54:13.627Z,8.80
2019-04-01T22:56:46.308Z,8.80
2019-04-01T22:59:19.286Z,8.55
2019-04-01T23:01:52.673Z,8.72
2019-04-01T23:04:25.310Z,8.72
2019-04-01T23:06:57.590Z,8.64
2019-04-01T23:09:30.048Z,8.64
2019-04-01T23:12:02.486Z,8.57
2019-04-01T23:14:34.427Z,8.50
2019-04-01T23:17:06.887Z,8.56
2019-04-01T23:19:39.412Z,8.56
2019-04-01T23:22:11.820Z,8.50
2019-04-01T23:24:44.347Z,8.50
2019-04-01T23:27:16.971Z,8.42
2019-04-01T23:29:51.087Z,8.42
2019-04-01T23:32:24.155Z,8.41
2019-04-01T23:34:56.772Z,8.33
2019-04-01T23:37:29.313Z,8.34
2019-04-01T23:40:02.395Z,8.06
2019-04-01T23:42:37.683Z,8.10
2019-04-01T23:45:11.788Z,8.10
2019-04-01T23:47:45.254Z,8.11
2019-04-01T23:50:18.292Z,8.07
2019-04-01T23:52:50.771Z,8.10
2019-04-01T23:55:23.308Z,8.10
2019-04-01T23:57:55.784Z,8.04
